createdAt,value
2022-08-07T00:00:33.216Z,100160.78
2022-08-07T00:01:44.394Z,100157.66
2022-08-07T00:02:41.130Z,100160.41
2022-08-07T00:03:36.834Z,100160.28
2022-08-07T00:04:24.407Z,100164.78
2022-08-07T00:05:11.846Z,100158.00
2022-08-07T00:05:59.217Z,100165.16
2022-08-07T00:06:51.744Z,100158.84
2022-08-07T00:07:40.891Z,100158.28
2022-08-07T00:08:28.617Z,100154.56
2022-08-07T00:09:21.068Z,100156.69
2022-08-07T00:10:26.015Z,100155.53
2022-08-07T00:11:14.515Z,100160.75
2022-08-07T00:12:07.025Z,100157.94
2022-08-07T00:13:00.295Z,100155.78
2022-08-07T00:13:48.545Z,100159.25
2022-08-07T00:14:38.075Z,100154.47
2022-08-07T00:15:35.952Z,100150.66
2022-08-07T00:16:27.888Z,100144.47
2022-08-07T00:17:15.108Z,100151.97
2022-08-07T00:18:03.974Z,100150.53
2022-08-07T00:18:50.834Z,100154.22
2022-08-07T00:20:00.884Z,100154.22
2022-08-07T00:20:44.624Z,100149.06
2022-08-07T00:21:56.222Z,100155.53
2022-08-07T00:22:39.446Z,100156.78
2022-08-07T00:23:30.553Z,100155.75
2022-08-07T00:24:17.505Z,100153.63
2022-08-07T00:25:06.954Z,100148.28
2022-08-07T00:26:00.250Z,100147.53
2022-08-07T00:27:06.498Z,100150.16
2022-08-07T00:27:56.494Z,100143.25
2022-08-07T00:28:46.184Z,100138.50
2022-08-07T00:29:42.656Z,100143.75
2022-08-07T00:30:29.785Z,100148.03
2022-08-07T00:31:17.731Z,100149.00
2022-08-07T00:32:06.798Z,100150.06
2022-08-07T00:32:54.155Z,100151.12
2022-08-07T00:33:41.145Z,100151.25
2022-08-07T00:34:30.295Z,100142.56
2022-08-07T00:35:20.054Z,100152.09
2022-08-07T00:36:10.330Z,100150.88
2022-08-07T00:36:57.356Z,100153.50
2022-08-07T00:37:47.902Z,100148.53
2022-08-07T00:38:36.994Z,100150.88
2022-08-07T00:39:26.298Z,100150.53
2022-08-07T00:40:14.068Z,100147.44
2022-08-07T00:41:01.476Z,100147.06
2022-08-07T00:42:04.940Z,100151.22
2022-08-07T00:42:52.248Z,100154.81
2022-08-07T00:44:01.780Z,100150.66
2022-08-07T00:44:46.753Z,100153.72
2022-08-07T00:45:34.835Z,100154.75
2022-08-07T00:46:22.528Z,100147.38
2022-08-07T00:48:05.291Z,100148.13
2022-08-07T00:48:16.470Z,100150.28
2022-08-07T00:49:05.395Z,100145.87
2022-08-07T00:50:21.452Z,100145.06
2022-08-07T00:51:03.046Z,100147.81
2022-08-07T00:51:56.571Z,100141.25
2022-08-07T00:52:47.326Z,100138.84
2022-08-07T00:53:38.599Z,100140.97
2022-08-07T00:54:37.415Z,100146.28
2022-08-07T00:56:00.516Z,100140.97
2022-08-07T00:56:34.925Z,100138.13
2022-08-07T00:57:26.256Z,100141.31
2022-08-07T00:58:13.556Z,100141.19
2022-08-07T00:59:01.135Z,100142.34
2022-08-07T00:59:47.975Z,100141.38
2022-08-07T01:00:35.516Z,100138.03
2022-08-07T01:01:22.955Z,100138.78
2022-08-07T01:02:27.822Z,100141.28
2022-08-07T01:03:15.898Z,100135.84
2022-08-07T01:04:07.339Z,100139.16
2022-08-07T01:04:54.276Z,100141.66
2022-08-07T01:05:53.523Z,100141.28
2022-08-07T01:06:40.575Z,100140.47
2022-08-07T01:07:31.168Z,100138.00
2022-08-07T01:08:18.165Z,100133.47
2022-08-07T01:09:07.047Z,100136.19
2022-08-07T01:10:06.825Z,100138.81
2022-08-07T01:10:58.448Z,100135.94
2022-08-07T01:12:09.745Z,100138.06
2022-08-07T01:13:04.585Z,100138.87
2022-08-07T01:13:55.939Z,100143.75
2022-08-07T01:14:44.976Z,100141.63
2022-08-07T01:15:35.986Z,100142.91
2022-08-07T01:16:43.166Z,100137.31
2022-08-07T01:17:34.895Z,100139.81
2022-08-07T01:18:22.766Z,100137.66
2022-08-07T01:19:18.375Z,100136.00
2022-08-07T01:20:09.577Z,100135.75
2022-08-07T01:21:22.826Z,100137.44
2022-08-07T01:22:22.548Z,100136.47
2022-08-07T01:23:12.234Z,100135.41
2022-08-07T01:24:02.106Z,100135.41
2022-08-07T01:24:49.595Z,100145.78
2022-08-07T01:25:54.527Z,100147.31
2022-08-07T01:26:43.315Z,100148.63
2022-08-07T01:27:50.002Z,100146.09
2022-08-07T01:28:38.666Z,100152.44
2022-08-07T01:29:31.196Z,100145.87
2022-08-07T01:30:19.015Z,100144.81
2022-08-07T01:31:06.305Z,100151.63
2022-08-07T01:31:54.245Z,100151.34
2022-08-07T01:32:41.477Z,100152.87
2022-08-07T01:33:52.010Z,100150.75
2022-08-07T01:34:36.482Z,100150.31
2022-08-07T01:35:25.139Z,100159.44
2022-08-07T01:36:33.789Z,100163.81
2022-08-07T01:37:23.666Z,100159.34
2022-08-07T01:38:10.686Z,100162.28
2022-08-07T01:38:59.269Z,100154.31
2022-08-07T01:39:47.192Z,100158.72
2022-08-07T01:40:35.516Z,100166.94
2022-08-07T01:41:26.229Z,100159.34
2022-08-07T01:42:37.209Z,100153.47
2022-08-07T01:43:21.936Z,100164.50
2022-08-07T01:44:13.063Z,100155.78
2022-08-07T01:44:59.965Z,100152.66
2022-08-07T01:45:48.007Z,100154.03
2022-08-07T01:46:41.686Z,100153.16
2022-08-07T01:48:18.926Z,100149.75
2022-08-07T01:48:35.968Z,100155.06
2022-08-07T01:49:27.956Z,100153.41
2022-08-07T01:50:28.622Z,100151.59
2022-08-07T01:52:02.735Z,100154.94
2022-08-07T01:52:30.337Z,100159.03
2022-08-07T01:53:21.612Z,100159.44
2022-08-07T01:54:36.555Z,100155.06
2022-08-07T01:55:27.568Z,100157.19
2022-08-07T01:56:18.194Z,100154.94
2022-08-07T01:57:24.458Z,100155.28
2022-08-07T01:58:29.233Z,100156.06
2022-08-07T01:59:33.146Z,100155.69
2022-08-07T02:00:29.030Z,100159.25
2022-08-07T02:01:59.014Z,100160.25
2022-08-07T02:03:18.702Z,100161.25
2022-08-07T02:03:50.861Z,100159.41
2022-08-07T02:05:06.653Z,100156.25
2022-08-07T02:06:30.931Z,100146.34
2022-08-07T02:07:12.576Z,100153.25
2022-08-07T02:08:16.516Z,100147.44
2022-08-07T02:09:05.769Z,100147.88
2022-08-07T02:09:58.316Z,100146.66
2022-08-07T02:10:55.040Z,100140.88
2022-08-07T02:12:03.877Z,100143.41
2022-08-07T02:12:51.813Z,100140.44
2022-08-07T02:13:57.218Z,100138.84
2022-08-07T02:14:49.996Z,100136.59
2022-08-07T02:15:38.986Z,100143.09
2022-08-07T02:16:28.770Z,100142.63
2022-08-07T02:17:27.419Z,100147.12
2022-08-07T02:18:15.070Z,100142.41
2022-08-07T02:20:03.504Z,100140.38
2022-08-07T02:20:17.524Z,100145.00
2022-08-07T02:21:07.757Z,100148.44
2022-08-07T02:22:03.533Z,100139.75
2022-08-07T02:23:03.172Z,100134.38
2022-08-07T02:23:50.417Z,100141.09
2022-08-07T02:24:37.417Z,100144.00
2022-08-07T02:26:10.891Z,100137.09
2022-08-07T02:26:34.822Z,100137.16
2022-08-07T02:27:25.266Z,100136.66
2022-08-07T02:28:12.506Z,100135.00
2022-08-07T02:29:00.237Z,100133.25
2022-08-07T02:29:53.921Z,100144.63
2022-08-07T02:30:43.036Z,100142.13
2022-08-07T02:31:32.710Z,100135.00
2022-08-07T02:32:23.319Z,100150.19
2022-08-07T02:33:11.776Z,100141.16
2022-08-07T02:34:03.425Z,100145.75
2022-08-07T02:34:52.017Z,100139.13
2022-08-07T02:36:28.988Z,100141.38
2022-08-07T02:36:46.250Z,100138.03
2022-08-07T02:37:36.195Z,100140.69
2022-08-07T02:38:33.075Z,100142.37
2022-08-07T02:39:42.568Z,100136.66
2022-08-07T02:40:30.805Z,100142.44
2022-08-07T02:41:22.278Z,100143.13
2022-08-07T02:42:20.655Z,100138.63
2022-08-07T02:43:08.261Z,100139.25
2022-08-07T02:43:56.086Z,100140.75
2022-08-07T02:44:48.001Z,100150.50
2022-08-07T02:46:00.773Z,100142.97
2022-08-07T02:46:51.752Z,100140.91
2022-08-07T02:47:48.876Z,100142.59
2022-08-07T02:48:36.364Z,100137.94
2022-08-07T02:49:56.130Z,100138.72
2022-08-07T02:50:35.180Z,100140.94
2022-08-07T02:51:41.884Z,100142.28
2022-08-07T02:52:48.825Z,100142.97
2022-08-07T02:53:38.915Z,100138.63
2022-08-07T02:54:29.555Z,100141.84
2022-08-07T02:55:28.359Z,100141.69
2022-08-07T02:56:31.787Z,100138.94
2022-08-07T02:57:22.233Z,100133.94
2022-08-07T02:58:11.016Z,100131.97
2022-08-07T02:59:01.265Z,100135.50
2022-08-07T03:00:00.792Z,100135.78
2022-08-07T03:00:53.080Z,100138.50
2022-08-07T03:01:41.652Z,100137.91
2022-08-07T03:02:34.878Z,100143.13
2022-08-07T03:03:23.380Z,100137.22
2022-08-07T03:04:12.924Z,100140.75
2022-08-07T03:05:00.555Z,100139.41
2022-08-07T03:05:53.633Z,100136.50
2022-08-07T03:06:44.788Z,100139.50
2022-08-07T03:08:05.239Z,100147.00
2022-08-07T03:08:40.516Z,100141.75
2022-08-07T03:09:43.314Z,100138.19
2022-08-07T03:10:31.767Z,100141.38
2022-08-07T03:11:18.856Z,100136.97
2022-08-07T03:12:22.310Z,100142.84
2022-08-07T03:13:19.536Z,100143.81
2022-08-07T03:14:07.425Z,100143.13
2022-08-07T03:14:56.426Z,100135.16
2022-08-07T03:15:55.549Z,100138.84
2022-08-07T03:16:43.747Z,100136.00
2022-08-07T03:17:31.276Z,100139.84
2022-08-07T03:18:24.437Z,100146.63
2022-08-07T03:19:21.417Z,100143.19
2022-08-07T03:20:09.397Z,100132.72
2022-08-07T03:20:59.668Z,100131.34
2022-08-07T03:21:50.590Z,100138.50
2022-08-07T03:22:38.827Z,100130.91
2022-08-07T03:23:33.401Z,100135.47
2022-08-07T03:24:27.024Z,100136.91
2022-08-07T03:25:15.118Z,100132.66
2022-08-07T03:26:08.268Z,100142.16
2022-08-07T03:27:09.025Z,100136.81
2022-08-07T03:28:08.969Z,100134.47
2022-08-07T03:29:06.496Z,100138.56
2022-08-07T03:29:58.888Z,100132.03
2022-08-07T03:30:46.627Z,100126.56
2022-08-07T03:31:43.401Z,100127.56
2022-08-07T03:32:57.022Z,100133.88
2022-08-07T03:33:51.667Z,100131.34
2022-08-07T03:34:39.606Z,100128.91
2022-08-07T03:35:43.483Z,100138.81
2022-08-07T03:36:38.778Z,100137.03
2022-08-07T03:37:27.677Z,100136.13
2022-08-07T03:38:15.697Z,100140.91
2022-08-07T03:39:08.931Z,100130.66
2022-08-07T03:40:13.340Z,100136.38
2022-08-07T03:41:03.922Z,100135.16
2022-08-07T03:41:53.176Z,100127.56
2022-08-07T03:42:40.399Z,100132.44
2022-08-07T03:43:32.402Z,100131.66
2022-08-07T03:44:21.667Z,100133.09
2022-08-07T03:45:29.865Z,100131.56
2022-08-07T03:46:18.785Z,100131.97
2022-08-07T03:47:13.777Z,100136.06
2022-08-07T03:48:01.951Z,100139.41
2022-08-07T03:49:03.051Z,100143.81
2022-08-07T03:49:53.424Z,100138.56
2022-08-07T03:50:43.125Z,100141.47
2022-08-07T03:51:47.154Z,100138.72
2022-08-07T03:52:35.457Z,100139.41
2022-08-07T03:53:50.040Z,100137.38
2022-08-07T03:54:35.335Z,100144.03
2022-08-07T03:55:23.646Z,100144.88
2022-08-07T03:56:33.402Z,100148.22
2022-08-07T03:58:33.205Z,100143.97
2022-08-07T03:59:05.521Z,100140.38
2022-08-07T03:59:36.828Z,100143.97
2022-08-07T04:00:35.395Z,100147.91
2022-08-07T04:01:23.501Z,100142.81
2022-08-07T04:02:10.448Z,100152.53
2022-08-07T04:02:57.339Z,100145.53
2022-08-07T04:03:49.895Z,100151.22
2022-08-07T04:04:43.050Z,100146.00
2022-08-07T04:05:40.375Z,100150.06
2022-08-07T04:06:37.067Z,100145.84
2022-08-07T04:07:24.926Z,100149.56
2022-08-07T04:08:16.345Z,100149.78
2022-08-07T04:09:08.503Z,100139.47
2022-08-07T04:10:03.388Z,100142.59
2022-08-07T04:10:54.445Z,100144.63
2022-08-07T04:12:28.181Z,100146.91
2022-08-07T04:13:04.898Z,100146.38
2022-08-07T04:14:11.008Z,100147.59
2022-08-07T04:14:59.499Z,100145.72
2022-08-07T04:15:48.950Z,100146.06
2022-08-07T04:16:37.244Z,100145.37
2022-08-07T04:18:30.690Z,100149.56
2022-08-07T04:18:59.896Z,100148.25
2022-08-07T04:19:52.795Z,100142.78
2022-08-07T04:20:54.352Z,100152.75
2022-08-07T04:21:59.479Z,100146.34
2022-08-07T04:22:53.731Z,100151.00
2022-08-07T04:24:06.958Z,100148.78
2022-08-07T04:24:54.842Z,100148.78
2022-08-07T04:25:45.826Z,100155.37
2022-08-07T04:26:38.515Z,100148.66
2022-08-07T04:27:35.525Z,100151.12
2022-08-07T04:28:23.315Z,100154.63
2022-08-07T04:29:12.305Z,100158.19
2022-08-07T04:30:04.561Z,100161.97
2022-08-07T04:30:57.157Z,100163.59
2022-08-07T04:32:03.061Z,100158.72
2022-08-07T04:32:58.184Z,100162.78
2022-08-07T04:33:46.225Z,100157.53
2022-08-07T04:34:37.746Z,100162.44
2022-08-07T04:35:26.518Z,100159.13
2022-08-07T04:36:14.746Z,100155.50
2022-08-07T04:37:01.667Z,100161.38
2022-08-07T04:38:03.181Z,100165.78
2022-08-07T04:38:53.647Z,100162.69
2022-08-07T04:39:47.927Z,100161.38
2022-08-07T04:40:51.322Z,100155.66
2022-08-07T04:41:39.865Z,100155.56
2022-08-07T04:42:32.076Z,100159.13
2022-08-07T04:44:09.887Z,100162.84
2022-08-07T04:44:29.887Z,100153.72
2022-08-07T04:45:44.437Z,100168.09
2022-08-07T04:47:04.131Z,100169.16
2022-08-07T04:48:10.705Z,100165.59
2022-08-07T04:49:24.717Z,100164.78
2022-08-07T04:50:18.118Z,100161.81
2022-08-07T04:51:16.718Z,100168.12
2022-08-07T04:52:08.086Z,100164.12
2022-08-07T04:53:03.214Z,100170.75
2022-08-07T04:54:02.049Z,100164.72
2022-08-07T04:58:07.494Z,100166.25
2022-08-07T04:58:09.707Z,100171.03
2022-08-07T04:58:11.332Z,100172.59
2022-08-07T05:00:08.085Z,100175.34
2022-08-07T05:00:30.776Z,100165.69
2022-08-07T05:01:54.278Z,100173.09
2022-08-07T05:03:16.706Z,100179.41
2022-08-07T05:04:17.409Z,100175.13
2022-08-07T05:05:53.537Z,100174.50
2022-08-07T05:06:23.158Z,100173.25
2022-08-07T05:07:20.997Z,100174.66
2022-08-07T05:08:16.567Z,100176.34
2022-08-07T05:09:46.267Z,100169.06
2022-08-07T05:10:39.727Z,100170.62
2022-08-07T05:11:57.007Z,100178.22
2022-08-07T05:12:46.193Z,100176.59
2022-08-07T05:14:52.592Z,100184.44
2022-08-07T05:15:23.544Z,100178.69
2022-08-07T05:16:12.655Z,100174.31
2022-08-07T05:17:05.873Z,100176.78
2022-08-07T05:18:01.567Z,100175.81
2022-08-07T05:19:01.111Z,100176.16
2022-08-07T05:19:50.407Z,100178.38
2022-08-07T05:20:42.882Z,100180.75
2022-08-07T05:22:00.548Z,100182.19
2022-08-07T05:22:38.607Z,100183.84
2022-08-07T05:23:31.108Z,100180.97
2022-08-07T05:24:24.578Z,100183.91
2022-08-07T05:25:26.324Z,100179.09
2022-08-07T05:26:28.336Z,100185.44
2022-08-07T05:28:03.270Z,100192.19
2022-08-07T05:28:26.756Z,100188.06
2022-08-07T05:29:15.950Z,100186.25
2022-08-07T05:30:03.566Z,100183.34
2022-08-07T05:30:52.846Z,100190.44
2022-08-07T05:31:41.106Z,100186.88
2022-08-07T05:32:38.868Z,100188.34
2022-08-07T05:33:28.208Z,100183.44
2022-08-07T05:34:17.116Z,100182.91
2022-08-07T05:35:06.547Z,100179.84
2022-08-07T05:35:53.727Z,100176.31
2022-08-07T05:36:52.805Z,100185.16
2022-08-07T05:37:42.445Z,100182.66
2022-08-07T05:38:59.954Z,100177.97
2022-08-07T05:40:16.512Z,100189.66
2022-08-07T05:40:51.530Z,100185.00
2022-08-07T05:42:01.634Z,100181.25
2022-08-07T05:42:55.996Z,100178.06
2022-08-07T05:44:08.507Z,100179.97
2022-08-07T05:45:14.854Z,100180.03
2022-08-07T05:46:02.292Z,100188.22
2022-08-07T05:46:51.316Z,100183.09
2022-08-07T05:48:02.017Z,100182.19
2022-08-07T05:48:58.115Z,100182.63
2022-08-07T05:49:49.146Z,100181.19
2022-08-07T05:50:39.630Z,100179.37
2022-08-07T05:51:31.799Z,100182.41
2022-08-07T05:52:20.679Z,100183.16
2022-08-07T05:54:12.381Z,100178.88
2022-08-07T05:54:44.173Z,100181.03
2022-08-07T05:56:03.681Z,100186.75
2022-08-07T05:56:43.838Z,100183.00
2022-08-07T05:57:34.712Z,100182.63
2022-08-07T05:58:36.215Z,100188.72
2022-08-07T05:59:25.725Z,100186.63
2022-08-07T06:00:16.707Z,100189.75
2022-08-07T06:01:08.485Z,100186.59
2022-08-07T06:01:58.479Z,100190.44
2022-08-07T06:02:49.507Z,100190.50
2022-08-07T06:03:53.858Z,100186.53
2022-08-07T06:04:50.808Z,100188.38
2022-08-07T06:05:37.860Z,100183.72
2022-08-07T06:06:29.806Z,100180.59
2022-08-07T06:07:22.819Z,100188.44
2022-08-07T06:08:29.424Z,100196.53
2022-08-07T06:09:17.246Z,100184.72
2022-08-07T06:10:06.187Z,100191.69
2022-08-07T06:10:58.435Z,100186.88
2022-08-07T06:11:45.738Z,100189.69
2022-08-07T06:12:34.507Z,100191.19
2022-08-07T06:14:10.473Z,100190.13
2022-08-07T06:14:30.206Z,100194.09
2022-08-07T06:15:19.725Z,100191.62
2022-08-07T06:16:07.747Z,100189.06
2022-08-07T06:16:57.311Z,100199.53
2022-08-07T06:17:53.952Z,100195.53
2022-08-07T06:18:43.168Z,100195.28
2022-08-07T06:19:47.904Z,100200.72
2022-08-07T06:20:50.968Z,100208.75
2022-08-07T06:22:14.391Z,100198.22
2022-08-07T06:23:25.206Z,100200.84
2022-08-07T06:24:45.541Z,100203.63
2022-08-07T06:25:16.919Z,100201.81
2022-08-07T06:26:06.038Z,100205.72
2022-08-07T06:26:53.957Z,100198.84
2022-08-07T06:27:59.834Z,100196.81
2022-08-07T06:28:53.094Z,100204.31
2022-08-07T06:29:40.057Z,100196.09
2022-08-07T06:30:35.948Z,100197.19
2022-08-07T06:31:49.398Z,100198.22
2022-08-07T06:32:32.673Z,100200.38
2022-08-07T06:33:19.967Z,100204.19
2022-08-07T06:34:09.577Z,100201.81
2022-08-07T06:34:56.698Z,100203.66
2022-08-07T06:35:47.715Z,100201.78
2022-08-07T06:36:51.804Z,100195.78
2022-08-07T06:37:43.378Z,100200.31
2022-08-07T06:38:31.030Z,100203.47
2022-08-07T06:40:16.427Z,100193.72
2022-08-07T06:40:27.836Z,100208.38
2022-08-07T06:41:55.484Z,100198.38
2022-08-07T06:42:40.366Z,100202.78
2022-08-07T06:43:39.230Z,100201.22
2022-08-07T06:44:33.945Z,100203.59
2022-08-07T06:45:23.426Z,100202.16
2022-08-07T06:46:12.245Z,100202.03
2022-08-07T06:47:12.343Z,100200.38
2022-08-07T06:48:03.762Z,100201.53
2022-08-07T06:48:50.828Z,100203.44
2022-08-07T06:49:51.484Z,100208.81
2022-08-07T06:50:43.379Z,100205.59
2022-08-07T06:51:49.849Z,100198.97
2022-08-07T06:52:38.736Z,100197.22
2022-08-07T06:55:29.987Z,100191.84
2022-08-07T06:55:33.879Z,100204.62
2022-08-07T06:56:00.197Z,100206.34
2022-08-07T06:56:50.730Z,100203.19
2022-08-07T06:57:39.627Z,100195.28
2022-08-07T06:58:35.746Z,100197.00
2022-08-07T07:00:12.383Z,100195.63
2022-08-07T07:00:52.746Z,100201.47
2022-08-07T07:01:48.732Z,100196.87
2022-08-07T07:02:53.354Z,100202.38
2022-08-07T07:03:49.961Z,100199.91
2022-08-07T07:04:54.763Z,100202.94
2022-08-07T07:06:05.214Z,100204.06
2022-08-07T07:07:00.043Z,100199.28
2022-08-07T07:07:59.357Z,100202.63
2022-08-07T07:08:53.406Z,100204.31
2022-08-07T07:09:49.518Z,100197.66
2022-08-07T07:10:37.670Z,100199.34
2022-08-07T07:12:08.518Z,100202.34
2022-08-07T07:12:53.538Z,100194.59
2022-08-07T07:13:57.833Z,100193.09
2022-08-07T07:14:53.783Z,100201.94
2022-08-07T07:15:51.390Z,100204.91
2022-08-07T07:16:49.935Z,100205.31
2022-08-07T07:18:33.045Z,100200.59
2022-08-07T07:19:55.286Z,100205.06
2022-08-07T07:20:48.096Z,100198.22
2022-08-07T07:21:40.425Z,100202.03
2022-08-07T07:24:08.317Z,100197.09
2022-08-07T07:24:11.127Z,100191.28
2022-08-07T07:25:02.830Z,100202.31
2022-08-07T07:26:35.672Z,100204.50
2022-08-07T07:27:12.147Z,100199.09
2022-08-07T07:28:42.020Z,100187.94
2022-08-07T07:29:56.535Z,100197.72
2022-08-07T07:30:38.480Z,100201.38
2022-08-07T07:31:39.928Z,100200.06
2022-08-07T07:32:32.394Z,100205.78
2022-08-07T07:33:20.119Z,100212.78
2022-08-07T07:34:11.830Z,100205.31
2022-08-07T07:35:03.976Z,100204.56
2022-08-07T07:36:04.455Z,100206.72
2022-08-07T07:36:54.202Z,100200.16
2022-08-07T07:37:47.488Z,100202.75
2022-08-07T07:38:41.727Z,100199.22
2022-08-07T07:39:35.862Z,100206.81
2022-08-07T07:40:40.737Z,100203.91
2022-08-07T07:41:50.310Z,100202.53
2022-08-07T07:42:37.048Z,100206.25
2022-08-07T07:43:27.667Z,100203.78
2022-08-07T07:44:34.087Z,100201.88
2022-08-07T07:46:37.201Z,100199.16
2022-08-07T07:46:53.649Z,100204.16
2022-08-07T07:47:52.715Z,100201.44
2022-08-07T07:48:40.445Z,100201.25
2022-08-07T07:50:33.641Z,100206.81
2022-08-07T07:50:40.235Z,100200.38
2022-08-07T07:51:28.846Z,100203.37
2022-08-07T07:52:37.023Z,100212.19
2022-08-07T07:53:25.807Z,100207.72
2022-08-07T07:54:14.574Z,100204.75
2022-08-07T07:55:03.718Z,100205.06
2022-08-07T07:56:00.944Z,100199.75
2022-08-07T07:56:49.338Z,100202.94
2022-08-07T07:57:51.518Z,100206.75
2022-08-07T07:58:41.648Z,100200.81
2022-08-07T07:59:52.882Z,100207.38
2022-08-07T08:00:36.005Z,100205.25
2022-08-07T08:02:02.378Z,100202.66
2022-08-07T08:02:35.430Z,100206.13
2022-08-07T08:04:06.004Z,100210.03
2022-08-07T08:04:32.751Z,100206.00
2022-08-07T08:05:22.360Z,100202.84
2022-08-07T08:06:16.036Z,100209.44
2022-08-07T08:07:07.762Z,100206.09
2022-08-07T08:08:00.881Z,100208.31
2022-08-07T08:08:49.527Z,100208.66
2022-08-07T08:09:51.766Z,100204.81
2022-08-07T08:10:47.880Z,100204.81
2022-08-07T08:11:59.365Z,100207.66
2022-08-07T08:12:58.904Z,100206.56
2022-08-07T08:13:54.929Z,100201.00
2022-08-07T08:14:42.836Z,100205.69
2022-08-07T08:15:58.108Z,100201.50
2022-08-07T08:16:50.681Z,100200.13
2022-08-07T08:17:57.286Z,100198.47
2022-08-07T08:18:45.659Z,100193.37
2022-08-07T08:20:16.943Z,100194.75
2022-08-07T08:20:45.629Z,100184.13
2022-08-07T08:22:03.123Z,100183.69
2022-08-07T08:23:10.893Z,100193.25
2022-08-07T08:24:36.207Z,100194.22
2022-08-07T08:27:09.457Z,100193.28
2022-08-07T08:27:20.480Z,100193.84
2022-08-07T08:28:03.722Z,100186.53
2022-08-07T08:28:53.463Z,100188.34
2022-08-07T08:29:55.944Z,100191.75
2022-08-07T08:30:51.475Z,100188.56
2022-08-07T08:31:59.137Z,100187.22
2022-08-07T08:32:59.786Z,100180.78
2022-08-07T08:33:49.275Z,100183.41
2022-08-07T08:34:36.896Z,100183.84
2022-08-07T08:35:28.691Z,100185.44
2022-08-07T08:36:16.658Z,100180.16
2022-08-07T08:37:09.993Z,100183.00
2022-08-07T08:38:13.977Z,100186.37
2022-08-07T08:39:06.530Z,100182.09
2022-08-07T08:39:58.334Z,100179.50
2022-08-07T08:40:50.488Z,100183.72
2022-08-07T08:41:56.697Z,100181.88
2022-08-07T08:42:54.587Z,100185.94
2022-08-07T08:44:04.216Z,100178.25
2022-08-07T08:45:14.146Z,100173.13
2022-08-07T08:46:45.008Z,100180.81
2022-08-07T08:47:52.759Z,100188.25
2022-08-07T08:49:05.697Z,100181.81
2022-08-07T08:50:04.718Z,100185.09
2022-08-07T08:50:59.028Z,100189.13
2022-08-07T08:52:19.160Z,100189.44
2022-08-07T08:53:30.687Z,100186.41
2022-08-07T08:54:24.949Z,100176.88
2022-08-07T08:55:55.515Z,100178.59
2022-08-07T08:56:48.427Z,100178.97
2022-08-07T08:57:40.677Z,100190.69
2022-08-07T08:58:54.610Z,100186.59
2022-08-07T08:59:54.998Z,100188.38
2022-08-07T09:00:57.934Z,100179.19
2022-08-07T09:02:08.869Z,100178.53
2022-08-07T09:03:11.887Z,100178.31
2022-08-07T09:04:31.887Z,100181.50
2022-08-07T09:05:47.118Z,100182.97
2022-08-07T09:06:40.364Z,100178.91
2022-08-07T09:07:57.452Z,100175.66
2022-08-07T09:09:00.527Z,100180.22
2022-08-07T09:09:59.117Z,100181.12
2022-08-07T09:10:57.746Z,100179.66
2022-08-07T09:12:20.295Z,100169.97
2022-08-07T09:13:11.180Z,100169.66
2022-08-07T09:14:18.517Z,100178.75
2022-08-07T09:16:23.468Z,100184.41
2022-08-07T09:16:52.196Z,100174.28
2022-08-07T09:17:59.473Z,100168.94
2022-08-07T09:19:50.786Z,100179.97
2022-08-07T09:20:35.334Z,100178.31
2022-08-07T09:21:34.457Z,100168.88
2022-08-07T09:24:31.268Z,100171.72
2022-08-07T09:24:34.200Z,100162.63
2022-08-07T09:25:24.687Z,100165.53
2022-08-07T09:26:20.647Z,100158.63
2022-08-07T09:27:22.666Z,100157.97
2022-08-07T09:30:04.031Z,100161.59
2022-08-07T09:30:04.319Z,100159.09
2022-08-07T09:31:17.667Z,100165.34
2022-08-07T09:32:17.127Z,100168.88
2022-08-07T09:33:52.350Z,100157.69
2022-08-07T09:36:04.846Z,100156.31
2022-08-07T09:36:35.875Z,100154.78
2022-08-07T09:37:53.507Z,100151.69
2022-08-07T09:39:11.415Z,100160.13
2022-08-07T09:40:27.066Z,100152.34
2022-08-07T09:41:58.449Z,100161.12
2022-08-07T09:43:04.598Z,100158.47
2022-08-07T09:44:19.253Z,100161.56
2022-08-07T09:47:23.455Z,100154.44
2022-08-07T09:47:49.988Z,100154.00
2022-08-07T09:48:29.761Z,100158.78
2022-08-07T09:50:02.566Z,100160.44
2022-08-07T09:52:16.385Z,100154.78
2022-08-07T09:52:34.153Z,100155.06
2022-08-07T09:53:23.487Z,100161.50
2022-08-07T09:54:19.305Z,100155.56
2022-08-07T09:55:29.736Z,100154.63
2022-08-07T09:56:39.291Z,100161.91
2022-08-07T09:57:57.166Z,100156.44
2022-08-07T09:59:07.534Z,100156.97
2022-08-07T10:00:14.464Z,100150.94
2022-08-07T10:01:51.200Z,100146.47
2022-08-07T10:02:55.614Z,100152.59
2022-08-07T10:04:28.086Z,100147.31
2022-08-07T10:06:00.855Z,100168.38
2022-08-07T10:07:24.178Z,100149.25
2022-08-07T10:08:32.610Z,100145.94
2022-08-07T10:10:00.607Z,100142.63
2022-08-07T10:11:59.180Z,100139.00
2022-08-07T10:12:35.238Z,100153.16
2022-08-07T10:14:01.003Z,100150.66
2022-08-07T10:15:06.957Z,100145.13
2022-08-07T10:16:21.070Z,100131.84
2022-08-07T10:17:10.550Z,100140.62
2022-08-07T10:18:15.725Z,100131.50
2022-08-07T10:19:21.748Z,100122.34
2022-08-07T10:20:30.408Z,100126.47
2022-08-07T10:22:14.472Z,100125.03
2022-08-07T10:23:17.276Z,100121.06
2022-08-07T10:24:33.492Z,100127.94
2022-08-07T10:25:55.165Z,100116.41
2022-08-07T10:27:10.391Z,100114.19
2022-08-07T10:28:15.712Z,100119.91
2022-08-07T10:29:11.840Z,100125.59
2022-08-07T10:30:12.157Z,100131.66
2022-08-07T10:31:11.196Z,100126.22
2022-08-07T10:32:51.153Z,100121.81
2022-08-07T10:34:27.335Z,100120.34
2022-08-07T10:35:53.313Z,100121.56
2022-08-07T10:37:05.748Z,100110.78
2022-08-07T10:38:21.263Z,100111.34
2022-08-07T10:39:41.263Z,100117.94
2022-08-07T10:40:36.894Z,100110.38
2022-08-07T10:41:47.355Z,100112.91
2022-08-07T10:42:52.933Z,100109.75
2022-08-07T10:44:08.686Z,100110.72
2022-08-07T10:45:44.963Z,100110.78
2022-08-07T10:46:31.086Z,100114.81
2022-08-07T10:47:53.339Z,100095.94
2022-08-07T10:49:49.622Z,100113.91
2022-08-07T10:50:50.187Z,100099.69
2022-08-07T10:52:01.950Z,100100.78
2022-08-07T10:53:12.650Z,100100.84
2022-08-07T10:54:08.737Z,100098.28
2022-08-07T10:55:27.142Z,100106.91
2022-08-07T10:56:31.545Z,100105.53
2022-08-07T10:57:34.307Z,100094.09
2022-08-07T10:59:00.259Z,100104.50
2022-08-07T10:59:52.992Z,100101.81
2022-08-07T11:00:56.646Z,100092.56
2022-08-07T11:02:32.795Z,100093.84
2022-08-07T11:03:37.854Z,100095.19
2022-08-07T11:04:51.326Z,100089.81
2022-08-07T11:06:06.508Z,100088.53
2022-08-07T11:07:24.710Z,100091.19
2022-08-07T11:08:30.257Z,100087.50
2022-08-07T11:10:08.832Z,100088.97
2022-08-07T11:10:55.395Z,100083.34
2022-08-07T11:11:52.168Z,100084.91
2022-08-07T11:13:02.038Z,100088.13
2022-08-07T11:14:45.487Z,100089.41
2022-08-07T11:15:14.785Z,100099.84
2022-08-07T11:16:19.570Z,100089.72